Time;durP1;ratioP1;P1;durP2;ratioP2;P2;SDS_P1;SDS_P2;PMS_P1;PMS_P2;Temp;Humidity;BMP_temperature;BMP_pressure;BME280_temperature;BME280_humidity;BME280_pressure;Samples;Min_cycle;Max_cycle;Signal;HPM_P1;HPM_P2
2021/12/20 00:01:04;;;;;;;9.18;2.50;;;21.60;53.20;;;;;;5019992;28;20571;-70
2021/12/20 00:03:30;;;;;;;8.40;2.05;;;21.60;53.20;;;;;;4991800;28;20053;-70
2021/12/20 00:05:55;;;;;;;11.32;2.17;;;21.60;53.20;;;;;;5020063;28;20054;-70
2021/12/20 00:08:21;;;;;;;8.48;2.25;;;21.60;53.20;;;;;;5016087;28;20053;-70
2021/12/20 00:10:46;;;;;;;7.35;2.00;;;21.60;53.10;;;;;;5001129;28;20087;-71
2021/12/20 00:13:12;;;;;;;5.18;1.85;;;21.60;53.10;;;;;;5010093;28;20053;-71
2021/12/20 00:15:37;;;;;;;7.35;2.08;;;21.60;53.10;;;;;;5016561;28;20065;-70
2021/12/20 00:18:04;;;;;;;6.57;2.05;;;21.60;53.10;;;;;;5014218;28;20056;-70
2021/12/20 00:20:30;;;;;;;5.85;1.90;;;21.60;53.00;;;;;;5013551;28;20052;-71
2021/12/20 00:22:56;;;;;;;7.47;2.28;;;21.60;53.00;;;;;;5013991;28;20508;-69
2021/12/20 00:25:22;;;;;;;9.02;2.28;;;21.60;53.00;;;;;;5008876;28;20049;-70
2021/12/20 00:27:47;;;;;;;6.80;1.90;;;21.60;52.90;;;;;;5015128;28;20512;-70
2021/12/20 00:30:13;;;;;;;6.15;1.95;;;21.60;52.90;;;;;;5021935;28;20467;-70
2021/12/20 00:32:39;;;;;;;9.98;2.25;;;21.60;52.90;;;;;;5031278;28;20076;-69
2021/12/20 00:35:06;;;;;;;6.22;2.10;;;21.60;52.80;;;;;;5014310;28;20026;-68
2021/12/20 00:40:20;;;;;;;4.82;1.90;;;21.60;52.80;;;;;;5015464;28;20137;-68
2021/12/20 00:42:47;;;;;;;6.38;2.03;;;21.60;52.80;;;;;;4981530;28;20042;-70
2021/12/20 00:45:13;;;;;;;4.88;1.80;;;21.60;52.70;;;;;;5013459;28;20084;-70
2021/12/20 00:47:40;;;;;;;5.88;1.85;;;21.60;52.70;;;;;;5017650;28;20041;-69
2021/12/20 00:50:08;;;;;;;6.65;2.05;;;21.60;53.50;;;;;;5011780;28;20053;-70
2021/12/20 00:52:34;;;;;;;8.07;2.13;;;21.60;52.70;;;;;;5011540;28;20108;-70
2021/12/20 00:55:00;;;;;;;6.05;1.77;;;21.60;52.70;;;;;;5030601;28;20049;-70
2021/12/20 00:57:25;;;;;;;7.40;2.03;;;21.60;52.60;;;;;;5010718;28;20086;-70
2021/12/20 00:59:51;;;;;;;5.28;1.63;;;21.60;52.60;;;;;;5010639;28;20044;-70
2021/12/20 01:02:18;;;;;;;7.38;2.03;;;21.60;52.60;;;;;;5014178;28;20428;-69
2021/12/20 01:04:44;;;;;;;8.32;2.35;;;21.60;52.60;;;;;;5009453;28;20044;-70
2021/12/20 01:07:10;;;;;;;6.53;1.63;;;21.60;52.60;;;;;;5011314;28;20042;-69
2021/12/20 01:09:36;;;;;;;8.82;2.15;;;21.60;52.60;;;;;;5026442;28;20038;-69
2021/12/20 01:12:05;;;;;;;5.65;1.83;;;21.60;52.50;;;;;;5016705;28;20041;-69
2021/12/20 01:14:33;;;;;;;6.28;1.88;;;21.60;52.50;;;;;;5003187;28;20057;-69
2021/12/20 01:17:05;;;;;;;4.72;1.73;;;21.60;52.50;;;;;;5019463;28;20056;-70
2021/12/20 01:19:32;;;;;;;7.63;2.00;;;21.60;52.50;;;;;;5014955;28;20559;-69
2021/12/20 01:21:58;;;;;;;9.35;2.17;;;21.60;52.50;;;;;;5012954;28;20536;-71
2021/12/20 01:24:23;;;;;;;5.00;1.85;;;21.60;52.40;;;;;;5012931;28;20053;-69
2021/12/20 01:26:49;;;;;;;6.05;1.58;;;21.60;52.40;;;;;;5015828;28;20187;-70
2021/12/20 01:29:15;;;;;;;9.65;2.17;;;21.60;52.40;;;;;;5017594;28;20037;-70
2021/12/20 01:31:41;;;;;;;6.07;2.05;;;21.60;52.40;;;;;;5013705;28;20044;-69
2021/12/20 01:34:07;;;;;;;5.13;1.70;;;21.60;52.30;;;;;;5010333;28;20125;-70
2021/12/20 01:36:32;;;;;;;6.13;2.00;;;21.60;52.30;;;;;;5007229;28;20121;-71
2021/12/20 01:38:58;;;;;;;6.10;1.60;;;21.60;52.30;;;;;;5010730;28;20046;-69
2021/12/20 01:41:24;;;;;;;7.00;2.00;;;21.60;52.30;;;;;;5031435;28;20050;-68
2021/12/20 01:43:49;;;;;;;8.73;1.98;;;21.60;52.30;;;;;;5016743;28;20033;-71
2021/12/20 01:46:15;;;;;;;5.72;1.75;;;21.60;52.20;;;;;;5010647;28;20129;-71
2021/12/20 01:48:43;;;;;;;5.97;1.88;;;21.60;52.20;;;;;;5010795;28;20563;-70
2021/12/20 01:51:29;;;;;;;4.95;1.90;;;21.60;52.20;;;;;;5013079;28;20053;-70
2021/12/20 01:53:56;;;;;;;7.43;2.03;;;21.60;52.20;;;;;;5012999;28;20087;-71
2021/12/20 01:56:22;;;;;;;4.23;1.77;;;21.60;52.20;;;;;;5017793;28;20098;-70
2021/12/20 01:58:47;;;;;;;6.40;2.00;;;21.60;52.20;;;;;;5016357;28;20853;-71
2021/12/20 02:03:43;;;;;;;5.90;1.70;;;21.60;52.20;;;;;;5011016;28;20497;-70
2021/12/20 02:08:56;;;;;;;5.22;1.58;;;21.60;52.10;;;;;;5010572;28;20088;-71
2021/12/20 02:11:22;;;;;;;6.22;1.90;;;21.60;52.10;;;;;;5008380;28;20538;-66
2021/12/20 02:13:48;;;;;;;6.28;1.85;;;21.60;52.00;;;;;;5013479;28;20045;-71
2021/12/20 02:16:14;;;;;;;5.45;1.80;;;21.60;52.10;;;;;;5017773;28;20049;-70
2021/12/20 02:18:40;;;;;;;7.35;1.65;;;21.60;52.10;;;;;;5014793;28;20464;-70
2021/12/20 02:21:06;;;;;;;3.83;1.48;;;21.60;52.00;;;;;;5031558;28;20048;-70
2021/12/20 02:23:32;;;;;;;8.43;1.55;;;21.60;52.00;;;;;;5037683;28;20042;-70
2021/12/20 02:25:59;;;;;;;4.70;1.63;;;21.60;52.00;;;;;;5014556;28;20046;-71
2021/12/20 02:28:25;;;;;;;4.03;1.43;;;21.60;51.90;;;;;;5009252;28;20056;-71
2021/12/20 02:38:51;;;;;;;4.50;1.50;;;21.60;51.90;;;;;;5015122;28;20150;-70
2021/12/20 02:41:28;;;;;;;6.63;1.90;;;21.60;51.90;;;;;;5017611;28;20400;-71
2021/12/20 02:43:57;;;;;;;6.75;1.52;;;21.60;51.90;;;;;;5012277;28;20304;-71
2021/12/20 02:49:02;;;;;;;4.88;1.50;;;21.60;51.80;;;;;;5017628;28;20053;-71
2021/12/20 02:51:27;;;;;;;7.00;1.58;;;21.60;51.80;;;;;;5012459;28;20068;-71
2021/12/20 02:53:55;;;;;;;5.72;1.88;;;21.60;51.90;;;;;;5019194;28;20053;-71
2021/12/20 02:56:22;;;;;;;4.47;1.48;;;21.60;51.90;;;;;;5011274;28;20724;-70
2021/12/20 02:58:47;;;;;;;5.55;1.70;;;21.60;51.80;;;;;;5009400;28;20045;-70
2021/12/20 03:01:13;;;;;;;3.83;1.45;;;21.60;51.90;;;;;;5011463;28;20044;-71
2021/12/20 03:03:39;;;;;;;4.90;1.63;;;21.60;51.80;;;;;;4999377;28;20046;-69
2021/12/20 03:06:20;;;;;;;3.65;1.30;;;21.60;51.80;;;;;;5016979;28;20059;-69
2021/12/20 03:08:50;;;;;;;5.15;1.65;;;21.60;51.80;;;;;;5017221;28;20072;-71
2021/12/20 03:11:16;;;;;;;3.70;1.35;;;21.60;51.70;;;;;;5013261;28;20782;-69
2021/12/20 03:13:45;;;;;;;6.50;1.42;;;21.60;51.70;;;;;;5014177;28;20176;-71
2021/12/20 03:16:10;;;;;;;5.45;1.60;;;21.60;51.70;;;;;;5013438;28;20083;-70
2021/12/20 03:18:36;;;;;;;4.97;1.67;;;21.60;51.60;;;;;;5013949;28;20474;-71
2021/12/20 03:21:01;;;;;;;4.43;1.40;;;21.60;51.60;;;;;;5018523;28;20037;-69
2021/12/20 03:23:27;;;;;;;4.95;1.50;;;21.60;51.60;;;;;;5020415;28;20533;-70
2021/12/20 03:25:53;;;;;;;5.00;1.48;;;21.60;51.60;;;;;;5022908;28;20406;-70
2021/12/20 03:28:18;;;;;;;3.83;1.52;;;21.60;51.50;;;;;;5032276;28;20122;-71
2021/12/20 03:30:44;;;;;;;4.45;1.40;;;21.60;51.50;;;;;;5021103;28;20061;-71
2021/12/20 03:33:10;;;;;;;6.20;1.52;;;21.60;51.50;;;;;;5010790;28;20046;-71
2021/12/20 03:35:36;;;;;;;3.45;1.27;;;21.60;51.40;;;;;;5023559;28;20045;-71
2021/12/20 03:38:02;;;;;;;4.68;1.35;;;21.60;51.50;;;;;;5019272;28;20073;-69
2021/12/20 03:40:27;;;;;;;4.70;1.60;;;21.60;51.50;;;;;;5029973;28;20812;-70
2021/12/20 03:42:53;;;;;;;4.57;1.50;;;21.60;51.40;;;;;;5017986;28;20408;-69
2021/12/20 03:45:19;;;;;;;3.88;1.33;;;21.60;51.40;;;;;;5016548;28;20053;-70
2021/12/20 03:47:44;;;;;;;3.65;1.27;;;21.60;51.40;;;;;;5014285;28;20483;-71
2021/12/20 03:50:12;;;;;;;3.70;1.30;;;21.60;51.40;;;;;;5015827;28;20041;-70
2021/12/20 03:52:38;;;;;;;4.63;1.40;;;21.60;51.40;;;;;;5014108;28;20133;-68
2021/12/20 03:55:09;;;;;;;3.92;1.48;;;21.60;51.30;;;;;;5015786;28;20135;-70
2021/12/20 03:57:35;;;;;;;4.55;1.33;;;21.60;51.30;;;;;;5014967;28;20587;-71
2021/12/20 04:00:03;;;;;;;2.88;1.25;;;21.60;51.30;;;;;;5018878;28;20072;-71
2021/12/20 04:02:36;;;;;;;4.22;1.40;;;21.60;51.30;;;;;;5013812;28;20400;-71
2021/12/20 04:05:02;;;;;;;4.60;1.10;;;21.60;51.30;;;;;;5011475;28;20033;-69
2021/12/20 04:07:27;;;;;;;3.90;1.52;;;21.60;51.30;;;;;;5011891;28;20515;-71
2021/12/20 04:09:53;;;;;;;4.03;1.40;;;21.60;51.20;;;;;;5032006;28;20046;-70
2021/12/20 04:12:18;;;;;;;5.00;1.30;;;21.60;51.20;;;;;;5013703;28;20042;-69
2021/12/20 04:14:45;;;;;;;4.70;1.50;;;21.60;51.20;;;;;;5012595;28;20480;-71
2021/12/20 04:17:11;;;;;;;4.00;1.25;;;21.60;51.20;;;;;;5017638;28;20439;-71
2021/12/20 04:19:37;;;;;;;4.45;1.33;;;21.60;51.20;;;;;;5021899;28;20507;-69
2021/12/20 04:22:04;;;;;;;6.30;1.48;;;21.60;51.10;;;;;;5031190;28;20536;-69
2021/12/20 04:24:29;;;;;;;3.80;1.13;;;21.60;51.10;;;;;;5015507;28;20057;-70
2021/12/20 04:26:55;;;;;;;3.63;1.05;;;21.50;51.10;;;;;;5014829;28;20083;-70
2021/12/20 04:29:20;;;;;;;3.85;1.20;;;21.60;51.10;;;;;;5015519;28;20049;-70
2021/12/20 04:31:46;;;;;;;4.07;1.27;;;21.60;51.10;;;;;;5012489;28;20123;-71
2021/12/20 04:34:12;;;;;;;3.60;1.15;;;21.60;51.10;;;;;;5009168;28;20030;-70
2021/12/20 04:36:38;;;;;;;5.20;1.50;;;21.60;51.10;;;;;;5011966;28;20034;-70
2021/12/20 04:39:06;;;;;;;3.03;1.10;;;21.60;51.00;;;;;;5010912;28;20522;-71
2021/12/20 04:41:32;;;;;;;2.92;1.27;;;21.60;51.00;;;;;;5017902;28;20042;-71
2021/12/20 04:43:58;;;;;;;3.38;1.25;;;21.60;51.00;;;;;;5013674;28;20037;-70
2021/12/20 04:46:23;;;;;;;3.65;1.20;;;21.60;51.00;;;;;;5016926;28;20053;-70
2021/12/20 04:48:49;;;;;;;3.67;1.20;;;21.60;51.00;;;;;;5011638;28;20038;-71
2021/12/20 04:51:14;;;;;;;3.00;1.17;;;21.50;50.90;;;;;;5013516;28;20077;-70
2021/12/20 04:53:40;;;;;;;3.90;1.30;;;21.50;50.90;;;;;;5016511;28;20541;-71
2021/12/20 04:56:05;;;;;;;4.78;1.27;;;21.60;51.00;;;;;;5009552;28;20148;-69
2021/12/20 04:58:31;;;;;;;4.50;1.48;;;21.50;50.90;;;;;;5012113;28;20050;-70
2021/12/20 05:00:58;;;;;;;3.08;1.23;;;21.50;50.90;;;;;;5010291;28;20049;-71
2021/12/20 05:03:24;;;;;;;2.85;1.10;;;21.50;50.80;;;;;;5011194;28;20110;-71
2021/12/20 05:05:49;;;;;;;3.60;1.10;;;21.50;50.80;;;;;;5028298;28;20059;-69
2021/12/20 05:08:15;;;;;;;2.90;1.10;;;21.50;50.80;;;;;;5016320;28;20481;-70
2021/12/20 05:10:42;;;;;;;3.53;1.08;;;21.50;50.90;;;;;;5010219;28;20564;-69
2021/12/20 05:13:11;;;;;;;2.92;0.90;;;21.50;50.80;;;;;;5013244;28;20050;-71
2021/12/20 05:15:40;;;;;;;3.08;1.10;;;21.50;50.80;;;;;;5012523;28;20099;-71
2021/12/20 05:18:07;;;;;;;3.65;0.90;;;21.50;50.80;;;;;;5013195;28;20523;-70
2021/12/20 05:20:33;;;;;;;3.53;1.00;;;21.50;50.70;;;;;;5014136;28;20038;-70
2021/12/20 05:23:00;;;;;;;2.08;0.88;;;21.50;50.80;;;;;;5002122;28;20135;-71
2021/12/20 05:25:26;;;;;;;4.05;1.05;;;21.50;51.10;;;;;;5014498;28;20582;-70
2021/12/20 05:27:52;;;;;;;3.97;0.98;;;21.50;50.70;;;;;;5014925;28;20477;-70
2021/12/20 05:30:19;;;;;;;2.75;0.98;;;21.50;50.70;;;;;;5018128;28;20046;-70
2021/12/20 05:32:44;;;;;;;3.42;0.82;;;21.50;50.60;;;;;;4998239;28;20038;-71
2021/12/20 05:35:12;;;;;;;4.22;1.13;;;21.50;50.60;;;;;;5008370;28;20050;-68
2021/12/20 05:37:38;;;;;;;4.70;1.20;;;21.50;50.60;;;;;;5012575;28;20057;-71
2021/12/20 05:40:06;;;;;;;3.13;1.20;;;21.50;50.60;;;;;;5021511;28;20045;-70
2021/12/20 05:42:32;;;;;;;4.85;1.13;;;21.50;50.60;;;;;;5017309;28;20508;-69
2021/12/20 05:44:58;;;;;;;3.38;0.93;;;21.50;50.60;;;;;;5020713;28;20064;-70
2021/12/20 05:47:23;;;;;;;2.65;1.00;;;21.50;50.60;;;;;;5015204;28;20076;-70
2021/12/20 05:49:50;;;;;;;3.10;1.20;;;21.50;50.60;;;;;;5016277;28;20046;-71
2021/12/20 05:52:16;;;;;;;2.25;0.90;;;21.50;50.60;;;;;;5014110;28;20048;-71
2021/12/20 05:54:41;;;;;;;2.13;1.00;;;21.50;50.50;;;;;;5017016;28;20037;-69
2021/12/20 05:57:07;;;;;;;3.10;0.80;;;21.50;50.50;;;;;;5018816;28;20045;-71
2021/12/20 05:59:33;;;;;;;4.82;1.08;;;21.50;50.50;;;;;;5015187;28;20041;-71
2021/12/20 06:01:58;;;;;;;2.88;1.10;;;21.50;50.50;;;;;;5013407;28;20099;-71
2021/12/20 06:04:24;;;;;;;2.25;1.00;;;21.50;50.40;;;;;;5012221;28;20045;-70
2021/12/20 06:06:49;;;;;;;5.35;1.38;;;21.50;50.40;;;;;;5017487;28;20049;-71
2021/12/20 06:09:15;;;;;;;2.80;1.17;;;21.50;50.50;;;;;;5016338;28;20409;-70
2021/12/20 06:11:41;;;;;;;2.67;1.15;;;21.50;50.40;;;;;;5018354;28;20061;-70
2021/12/20 06:14:07;;;;;;;4.28;1.17;;;21.50;50.50;;;;;;5019454;28;20054;-68
2021/12/20 06:16:32;;;;;;;3.70;1.10;;;21.50;50.50;;;;;;5016294;28;20400;-68
2021/12/20 06:19:01;;;;;;;2.17;1.00;;;21.50;50.60;;;;;;5017051;28;20046;-68
2021/12/20 06:21:27;;;;;;;4.47;1.23;;;21.50;50.50;;;;;;5017432;28;20060;-68
2021/12/20 06:23:52;;;;;;;3.13;1.05;;;21.50;50.50;;;;;;5040004;28;20046;-69
2021/12/20 06:26:18;;;;;;;2.10;0.73;;;21.50;50.50;;;;;;5017455;28;20091;-68
2021/12/20 06:28:44;;;;;;;2.50;0.93;;;21.60;50.50;;;;;;5016225;28;20123;-69
2021/12/20 06:31:09;;;;;;;4.35;1.00;;;21.60;50.50;;;;;;5021167;28;20037;-69
2021/12/20 06:33:35;;;;;;;2.50;0.90;;;21.60;50.40;;;;;;5015931;28;20037;-70
2021/12/20 06:36:01;;;;;;;2.65;0.80;;;21.60;50.40;;;;;;5018481;28;20149;-69
2021/12/20 06:38:26;;;;;;;2.95;1.00;;;21.60;50.40;;;;;;5014825;28;20092;-70
2021/12/20 06:40:53;;;;;;;5.05;1.20;;;21.60;50.40;;;;;;5025724;28;20049;-69
2021/12/20 06:43:19;;;;;;;3.05;0.90;;;21.60;50.30;;;;;;5020686;28;20042;-68
2021/12/20 06:45:46;;;;;;;3.22;1.00;;;21.60;50.30;;;;;;5000534;28;20045;-71
2021/12/20 06:48:12;;;;;;;3.67;0.98;;;21.60;50.40;;;;;;4999992;28;20092;-70
2021/12/20 06:50:38;;;;;;;3.03;1.02;;;21.60;50.40;;;;;;5003420;28;20061;-70
2021/12/20 06:53:05;;;;;;;3.83;0.80;;;21.60;50.30;;;;;;5020359;28;20500;-70
2021/12/20 06:55:32;;;;;;;3.35;1.15;;;21.60;50.30;;;;;;5023767;28;20050;-69
2021/12/20 06:57:57;;;;;;;2.97;0.85;;;21.60;50.30;;;;;;5023449;28;20037;-69
2021/12/20 07:00:23;;;;;;;2.20;0.70;;;21.60;50.30;;;;;;5035216;28;20103;-71
2021/12/20 07:02:49;;;;;;;4.10;1.08;;;21.60;50.30;;;;;;5021358;28;20384;-69
2021/12/20 07:05:15;;;;;;;2.42;0.73;;;21.60;50.30;;;;;;5019816;28;20156;-70
2021/12/20 07:07:41;;;;;;;4.30;0.77;;;21.60;50.30;;;;;;5021913;28;20053;-72
2021/12/20 07:10:07;;;;;;;1.98;0.80;;;21.60;50.30;;;;;;5014673;28;20049;-71
2021/12/20 07:12:35;;;;;;;4.32;1.10;;;21.60;50.20;;;;;;5021622;28;20187;-71
2021/12/20 07:15:03;;;;;;;6.53;1.08;;;21.60;50.20;;;;;;5019093;28;20041;-68
2021/12/20 07:17:30;;;;;;;4.95;1.17;;;21.60;50.20;;;;;;5016267;28;20034;-69
2021/12/20 07:19:55;;;;;;;2.50;0.82;;;21.60;50.20;;;;;;5019284;28;20430;-71
2021/12/20 07:22:21;;;;;;;3.55;0.95;;;21.60;50.20;;;;;;5016385;28;20037;-69
2021/12/20 07:24:46;;;;;;;7.03;1.10;;;21.60;50.20;;;;;;5017215;28;20047;-69
2021/12/20 07:27:12;;;;;;;4.13;1.00;;;21.60;50.20;;;;;;5017465;28;20052;-69
2021/12/20 07:29:38;;;;;;;7.40;1.30;;;21.60;50.20;;;;;;5020244;28;20037;-69
2021/12/20 07:32:05;;;;;;;5.82;1.20;;;21.60;50.30;;;;;;5017718;28;20397;-69
2021/12/20 07:34:31;;;;;;;3.13;1.10;;;21.70;50.50;;;;;;5017216;28;20427;-69
2021/12/20 07:36:56;;;;;;;5.10;1.25;;;21.60;50.60;;;;;;5013993;28;20038;-68
2021/12/20 07:39:22;;;;;;;3.42;1.13;;;21.70;50.60;;;;;;5017198;28;20140;-69
2021/12/20 07:41:49;;;;;;;6.15;1.20;;;21.70;50.60;;;;;;5021238;28;20530;-71
2021/12/20 07:44:15;;;;;;;5.07;1.10;;;21.70;50.60;;;;;;5016584;28;20034;-70
2021/12/20 07:46:40;;;;;;;3.78;1.17;;;21.70;50.60;;;;;;5016107;28;20099;-70
2021/12/20 07:49:06;;;;;;;4.93;1.00;;;21.70;50.60;;;;;;5019994;28;20045;-70
2021/12/20 07:51:31;;;;;;;3.03;1.00;;;21.70;50.50;;;;;;5014429;28;20069;-72
2021/12/20 07:54:00;;;;;;;6.20;0.80;;;21.70;50.50;;;;;;5030545;28;20040;-72
2021/12/20 07:56:25;;;;;;;5.43;1.10;;;21.80;50.50;;;;;;5019251;28;20041;-71
2021/12/20 07:58:51;;;;;;;2.22;0.93;;;21.80;50.50;;;;;;5016683;28;20045;-71
2021/12/20 08:01:17;;;;;;;2.47;1.00;;;21.80;50.50;;;;;;5017625;28;20079;-71
2021/12/20 08:03:43;;;;;;;4.38;0.90;;;21.80;50.40;;;;;;5015742;28;20048;-72
2021/12/20 08:06:08;;;;;;;5.80;1.10;;;21.80;50.40;;;;;;5018349;28;20047;-71
2021/12/20 08:08:35;;;;;;;5.53;1.25;;;21.80;50.30;;;;;;5023379;28;20055;-72
2021/12/20 08:11:00;;;;;;;4.47;1.23;;;21.90;50.40;;;;;;5023443;28;20049;-72
2021/12/20 08:13:26;;;;;;;3.72;1.10;;;22.00;50.30;;;;;;5012807;28;20045;-69
2021/12/20 08:15:52;;;;;;;4.07;1.20;;;22.30;49.80;;;;;;5015508;28;20087;-70
2021/12/20 08:18:21;;;;;;;2.65;1.10;;;22.60;49.20;;;;;;5010920;28;20049;-72
2021/12/20 08:20:47;;;;;;;3.83;1.08;;;22.70;48.70;;;;;;5038837;28;20049;-72
2021/12/20 08:23:13;;;;;;;7.18;1.30;;;22.70;48.80;;;;;;5012352;28;20501;-74
2021/12/20 08:25:39;;;;;;;5.63;1.17;;;22.60;48.80;;;;;;5017127;28;20046;-70
2021/12/20 08:28:07;;;;;;;4.63;1.30;;;22.50;48.90;;;;;;5008993;28;20099;-72
2021/12/20 08:30:32;;;;;;;9.85;2.08;;;22.50;49.10;;;;;;5012088;28;20048;-72
2021/12/20 08:32:58;;;;;;;4.97;1.38;;;22.60;49.00;;;;;;5015114;28;20056;-70
2021/12/20 08:35:24;;;;;;;4.88;1.98;;;22.70;49.00;;;;;;5008065;28;20607;-72
2021/12/20 08:37:50;;;;;;;6.15;2.92;;;22.80;48.80;;;;;;5018413;28;20050;-71
2021/12/20 08:40:16;;;;;;;9.32;2.10;;;23.10;48.60;;;;;;5015244;28;20048;-71
2021/12/20 08:42:43;;;;;;;4.05;2.17;;;23.30;47.90;;;;;;5017057;28;20469;-72
2021/12/20 08:45:10;;;;;;;2.55;0.90;;;23.50;47.50;;;;;;5014233;28;20046;-72
2021/12/20 08:47:36;;;;;;;4.60;1.63;;;23.40;47.60;;;;;;5008667;28;20515;-72
2021/12/20 08:50:05;;;;;;;4.78;1.10;;;23.30;47.70;;;;;;5013974;28;20052;-72
2021/12/20 08:52:31;;;;;;;4.43;1.35;;;23.10;47.80;;;;;;5016702;28;20037;-72
2021/12/20 08:54:56;;;;;;;2.90;0.98;;;23.00;48.10;;;;;;5008345;28;20076;-73
2021/12/20 08:57:22;;;;;;;2.88;1.00;;;22.90;48.20;;;;;;5017543;28;20045;-71
2021/12/20 08:59:49;;;;;;;3.53;0.93;;;22.80;48.40;;;;;;5018793;28;20077;-73
2021/12/20 09:02:15;;;;;;;4.35;1.17;;;22.80;48.60;;;;;;5012437;28;20050;-72
2021/12/20 09:04:40;;;;;;;3.90;1.15;;;22.70;48.80;;;;;;5014048;28;20511;-72
2021/12/20 09:07:07;;;;;;;5.43;1.30;;;22.70;48.80;;;;;;5016265;28;20047;-70
2021/12/20 09:09:39;;;;;;;8.05;1.20;;;22.60;48.90;;;;;;5015021;28;20041;-70
2021/12/20 09:12:06;;;;;;;3.58;1.05;;;22.60;48.90;;;;;;5032863;28;20064;-71
2021/12/20 09:14:33;;;;;;;6.28;1.10;;;22.50;48.90;;;;;;5008918;28;20125;-72
2021/12/20 09:17:00;;;;;;;7.35;1.40;;;22.50;49.00;;;;;;5015512;28;20131;-69
2021/12/20 09:19:25;;;;;;;4.47;1.08;;;22.40;49.10;;;;;;5021882;28;20045;-71
2021/12/20 09:21:52;;;;;;;3.63;1.23;;;22.40;50.00;;;;;;5020548;28;20041;-70
2021/12/20 09:24:18;;;;;;;4.35;1.02;;;22.40;49.30;;;;;;5039185;28;20154;-70
2021/12/20 09:26:44;;;;;;;3.75;1.05;;;22.40;49.40;;;;;;5014921;28;20383;-74
2021/12/20 09:29:09;;;;;;;4.43;1.10;;;22.40;49.50;;;;;;5020366;28;20048;-71
2021/12/20 09:31:35;;;;;;;4.15;1.30;;;22.40;49.70;;;;;;4996956;28;20042;-73
2021/12/20 09:34:00;;;;;;;8.05;1.38;;;22.30;49.70;;;;;;5020807;28;20050;-70
2021/12/20 09:36:29;;;;;;;5.65;1.42;;;22.30;49.70;;;;;;5020606;28;20030;-71
2021/12/20 09:38:57;;;;;;;5.20;1.30;;;22.30;49.80;;;;;;5022397;28;20045;-71
2021/12/20 09:44:11;;;;;;;4.38;1.23;;;22.30;50.00;;;;;;5020862;28;20038;-72
2021/12/20 09:46:38;;;;;;;4.30;1.23;;;22.30;50.10;;;;;;5020066;28;20049;-72
2021/12/20 09:49:04;;;;;;;3.97;1.10;;;22.30;50.30;;;;;;5016299;28;20044;-73
2021/12/20 09:51:30;;;;;;;3.20;1.15;;;22.20;50.20;;;;;;5021080;28;20497;-74
2021/12/20 09:53:56;;;;;;;4.20;1.17;;;22.20;50.40;;;;;;5020666;28;20057;-72
2021/12/20 09:56:24;;;;;;;5.15;1.27;;;22.20;50.40;;;;;;5019594;28;20132;-72
2021/12/20 09:58:53;;;;;;;5.30;1.10;;;22.20;50.50;;;;;;5015637;28;20045;-71
2021/12/20 10:01:20;;;;;;;7.38;1.33;;;22.20;50.50;;;;;;5017206;28;20037;-71
2021/12/20 10:03:48;;;;;;;5.72;1.38;;;22.20;50.50;;;;;;5022720;28;20083;-69
2021/12/20 10:06:15;;;;;;;6.70;1.40;;;22.10;50.40;;;;;;5022006;28;20034;-69
2021/12/20 10:08:50;;;;;;;6.28;1.40;;;22.10;50.40;;;;;;5019715;28;20544;-72
2021/12/20 10:11:29;;;;;;;5.25;1.27;;;22.10;50.50;;;;;;5018330;28;20053;-72
2021/12/20 10:14:08;;;;;;;5.32;1.60;;;22.10;50.80;;;;;;5017957;28;20120;-72
2021/12/20 10:16:35;;;;;;;5.80;1.33;;;22.10;50.80;;;;;;5022032;28;20385;-73
2021/12/20 10:19:03;;;;;;;4.63;1.65;;;22.10;50.80;;;;;;5014772;28;20572;-72
2021/12/20 10:21:42;;;;;;;5.90;1.43;;;22.10;50.80;;;;;;5017421;28;20145;-73
2021/12/20 10:24:08;;;;;;;5.10;1.38;;;22.10;50.80;;;;;;5010906;28;20100;-74
2021/12/20 10:26:41;;;;;;;9.00;1.55;;;22.00;50.70;;;;;;5013192;28;20706;-76
2021/12/20 10:29:18;;;;;;;8.15;1.73;;;22.00;50.50;;;;;;5017086;28;20049;-76
2021/12/20 10:31:44;;;;;;;5.55;1.55;;;22.00;50.40;;;;;;4999754;28;20040;-76
2021/12/20 10:34:10;;;;;;;7.88;1.80;;;22.00;50.30;;;;;;5012150;28;20049;-76
2021/12/20 10:36:36;;;;;;;5.85;1.60;;;21.90;50.00;;;;;;5016368;28;20041;-77
2021/12/20 10:39:04;;;;;;;6.85;1.75;;;21.90;49.90;;;;;;5017697;28;20041;-75
2021/12/20 10:41:35;;;;;;;6.72;1.67;;;21.90;49.80;;;;;;5013792;28;20614;-73
2021/12/20 10:44:14;;;;;;;5.57;1.38;;;21.90;49.70;;;;;;5035018;28;20045;-75
2021/12/20 10:46:56;;;;;;;4.55;1.60;;;21.80;49.70;;;;;;5034156;28;20096;-75
2021/12/20 10:49:30;;;;;;;8.73;1.70;;;21.80;49.50;;;;;;5014078;28;20041;-77
2021/12/20 10:51:55;;;;;;;9.32;1.80;;;21.80;49.50;;;;;;5017712;28;20045;-76
2021/12/20 10:54:25;;;;;;;7.00;1.48;;;21.80;49.60;;;;;;5015577;28;20102;-75
2021/12/20 10:57:01;;;;;;;8.95;1.95;;;21.80;49.40;;;;;;5019455;28;20579;-75
2021/12/20 10:59:32;;;;;;;6.10;2.08;;;21.80;49.30;;;;;;5033212;28;20037;-73
2021/12/20 11:04:38;;;;;;;8.88;2.38;;;21.80;49.20;;;;;;5014681;28;20057;-75
2021/12/20 11:09:46;;;;;;;11.02;2.33;;;21.90;49.10;;;;;;5017603;28;20597;-72
2021/12/20 11:12:20;;;;;;;10.65;2.30;;;22.00;49.00;;;;;;5018504;28;20049;-69
2021/12/20 11:14:49;;;;;;;10.50;2.47;;;22.00;49.00;;;;;;5016778;28;20690;-70
2021/12/20 11:17:18;;;;;;;5.95;2.05;;;22.00;49.10;;;;;;5011347;28;20041;-70
2021/12/20 11:19:52;;;;;;;9.55;2.00;;;22.10;49.20;;;;;;5017335;28;20049;-70
2021/12/20 11:22:20;;;;;;;11.57;2.70;;;22.10;49.20;;;;;;5014350;28;20042;-69
2021/12/20 11:24:52;;;;;;;11.82;2.80;;;22.10;49.40;;;;;;5032642;28;20038;-70
2021/12/20 11:27:23;;;;;;;9.93;2.25;;;22.10;49.40;;;;;;5013699;28;20050;-72
2021/12/20 11:29:50;;;;;;;;;;;22.10;49.50;;;;;;5025472;28;20037;-77
2021/12/20 11:32:18;;;;;;;8.87;2.10;;;22.10;49.50;;;;;;5030099;28;19955;-78
2021/12/20 11:34:44;;;;;;;8.95;2.30;;;22.10;49.50;;;;;;5020298;28;20491;-74
2021/12/20 11:37:12;;;;;;;10.68;2.17;;;22.10;49.30;;;;;;5012701;28;20052;-74
2021/12/20 11:39:38;;;;;;;7.28;2.00;;;22.00;49.10;;;;;;5037788;28;20050;-77
2021/12/20 11:42:06;;;;;;;7.28;2.00;;;22.00;49.00;;;;;;5017261;28;20056;-73
2021/12/20 11:44:32;;;;;;;8.80;2.13;;;22.00;48.90;;;;;;5033013;28;20049;-75
2021/12/20 11:47:15;;;;;;;6.80;2.20;;;22.00;48.80;;;;;;5018866;28;20068;-76
2021/12/20 11:49:41;;;;;;;12.82;2.42;;;21.90;48.60;;;;;;5020997;28;20029;-71
2021/12/20 11:52:16;;;;;;;12.32;2.28;;;21.90;48.70;;;;;;5018445;28;20043;-71
2021/12/20 11:54:51;;;;;;;5.50;1.88;;;21.90;48.70;;;;;;5009406;28;20127;-72
2021/12/20 11:57:38;;;;;;;8.35;2.22;;;21.90;48.80;;;;;;5017999;28;20041;-72
2021/12/20 12:00:16;;;;;;;8.40;2.10;;;21.80;48.80;;;;;;5029065;28;20140;-74
2021/12/20 12:02:44;;;;;;;9.50;2.38;;;21.80;48.90;;;;;;5013215;28;20041;-70
2021/12/20 12:05:17;;;;;;;6.93;1.73;;;21.80;48.90;;;;;;5015931;28;20051;-70
2021/12/20 12:07:45;;;;;;;9.35;2.30;;;21.80;48.90;;;;;;5011173;28;20799;-71
2021/12/20 12:10:15;;;;;;;11.02;2.58;;;21.80;48.80;;;;;;5017104;28;20053;-67
2021/12/20 12:12:43;;;;;;;11.43;2.55;;;21.80;48.90;;;;;;5015494;28;20033;-74
2021/12/20 12:15:28;;;;;;;6.82;1.90;;;21.80;49.00;;;;;;5030401;28;20057;-69
2021/12/20 12:18:03;;;;;;;10.68;2.53;;;21.80;49.00;;;;;;5017946;28;20146;-71
2021/12/20 12:20:40;;;;;;;11.55;2.33;;;21.80;49.10;;;;;;5014132;28;20127;-70
2021/12/20 12:23:22;;;;;;;13.48;2.40;;;21.80;49.20;;;;;;5018976;28;20049;-74
2021/12/20 12:26:05;;;;;;;6.93;2.17;;;21.80;49.20;;;;;;5000603;28;20052;-69
2021/12/20 12:28:55;;;;;;;8.00;1.98;;;21.80;49.20;;;;;;5015577;28;20141;-68
2021/12/20 12:31:21;;;;;;;5.68;2.05;;;21.80;49.30;;;;;;5015666;28;20037;-72
2021/12/20 12:33:47;;;;;;;6.63;1.80;;;21.80;49.20;;;;;;5015072;28;20045;-70
2021/12/20 12:36:25;;;;;;;6.65;2.17;;;21.80;49.20;;;;;;5016837;28;20038;-80
2021/12/20 12:38:56;;;;;;;9.50;2.42;;;21.80;49.20;;;;;;5013480;28;20548;-76
2021/12/20 12:41:27;;;;;;;5.18;1.70;;;21.80;49.20;;;;;;5012559;28;20152;-77
2021/12/20 12:44:00;;;;;;;7.20;1.70;;;21.80;49.10;;;;;;5015284;28;20045;-74
2021/12/20 12:46:35;;;;;;;5.28;2.08;;;21.80;49.10;;;;;;5012481;28;20108;-73
2021/12/20 12:49:21;;;;;;;7.13;1.73;;;21.80;49.10;;;;;;5018376;28;20045;-74
2021/12/20 12:51:55;;;;;;;9.50;2.28;;;21.80;49.80;;;;;;5013082;28;20094;-68
2021/12/20 12:54:33;;;;;;;6.82;1.90;;;21.80;49.00;;;;;;5012651;28;20037;-72
2021/12/20 12:57:11;;;;;;;9.27;1.90;;;21.80;48.90;;;;;;5020824;28;20132;-74
2021/12/20 12:59:38;;;;;;;9.60;2.00;;;21.70;48.90;;;;;;5010147;28;20120;-71
2021/12/20 13:02:12;;;;;;;7.40;2.33;;;21.70;48.90;;;;;;5013576;28;20104;-74
2021/12/20 13:04:53;;;;;;;10.25;2.00;;;21.70;48.80;;;;;;5030017;28;20060;-74
2021/12/20 13:07:20;;;;;;;4.85;1.73;;;21.60;48.70;;;;;;5026324;28;20056;-74
2021/12/20 13:09:48;;;;;;;10.45;2.15;;;21.60;48.80;;;;;;5041775;28;20144;-74
2021/12/20 13:12:30;;;;;;;12.10;2.28;;;21.60;48.50;;;;;;5024847;28;20077;-73
2021/12/20 13:18:27;;;;;;;9.80;1.90;;;21.60;48.30;;;;;;4984173;28;20058;-74
2021/12/20 13:23:28;;;;;;;;;;;21.50;48.30;;;;;;5026240;28;20401;-74